Time;durP1;ratioP1;P1;durP2;ratioP2;P2;SDS_P1;SDS_P2;PMS_P1;PMS_P2;Temp;Humidity;BMP_temperature;BMP_pressure;BME280_temperature;BME280_humidity;BME280_pressure;Samples;Min_cycle;Max_cycle;Signal;HPM_P1;HPM_P2
2022/04/08 00:00:26;;;;;;;16.25;5.10;;;;;;;;;;5085026;28;20522;-75
2022/04/08 00:02:56;;;;;;;16.27;5.40;;;;;;;;;;5084850;28;20692;-75
2022/04/08 00:05:26;;;;;;;14.57;5.13;;;;;;;;;;5086431;28;20091;-75
2022/04/08 00:07:56;;;;;;;10.07;4.57;;;;;;;;;;5067803;28;20060;-76
2022/04/08 00:10:25;;;;;;;14.88;4.80;;;;;;;;;;5086172;28;20063;-76
2022/04/08 00:12:58;;;;;;;18.83;4.88;;;;;;;;;;5085437;28;20048;-76
2022/04/08 00:15:29;;;;;;;16.50;5.53;;;;;;;;;;5085224;28;20051;-76
2022/04/08 00:17:58;;;;;;;28.63;7.78;;;;;;;;;;5085678;28;20052;-76
2022/04/08 00:20:28;;;;;;;20.52;6.13;;;;;;;;;;5085989;28;20491;-76
2022/04/08 00:22:59;;;;;;;24.38;6.35;;;;;;;;;;5085439;28;20063;-75
2022/04/08 00:25:28;;;;;;;14.85;5.70;;;;;;;;;;5083911;28;20063;-76
2022/04/08 00:27:58;;;;;;;18.92;5.07;;;;;;;;;;5085675;28;20048;-76
2022/04/08 00:30:28;;;;;;;16.10;5.22;;;;;;;;;;5084761;28;20578;-74
2022/04/08 00:32:58;;;;;;;12.20;5.13;;;;;;;;;;5084511;28;20060;-75
2022/04/08 00:35:28;;;;;;;20.03;5.67;;;;;;;;;;5086577;28;20040;-75
2022/04/08 00:37:58;;;;;;;17.83;5.32;;;;;;;;;;5089320;28;20684;-76
2022/04/08 00:40:28;;;;;;;14.63;5.15;;;;;;;;;;5088774;28;20043;-75
2022/04/08 00:42:58;;;;;;;12.32;5.53;;;;;;;;;;5089225;28;20063;-75
2022/04/08 00:45:28;;;;;;;19.02;5.28;;;;;;;;;;5088213;28;20044;-76
2022/04/08 00:48:06;;;;;;;16.48;5.30;;;;;;;;;;5070033;28;20067;-77
2022/04/08 00:50:38;;;;;;;15.68;4.60;;;;;;;;;;5088243;28;20499;-76
2022/04/08 00:53:09;;;;;;;20.88;5.68;;;;;;;;;;5089354;28;20522;-76
2022/04/08 00:55:39;;;;;;;15.38;5.05;;;;;;;;;;5089503;28;20150;-75
2022/04/08 00:58:09;;;;;;;17.80;4.82;;;;;;;;;;5089632;28;20051;-75
2022/04/08 01:00:40;;;;;;;17.30;4.78;;;;;;;;;;5089288;28;20047;-76
2022/04/08 01:03:10;;;;;;;12.53;4.47;;;;;;;;;;5088800;28;20043;-75
2022/04/08 01:05:41;;;;;;;13.43;4.40;;;;;;;;;;5088833;28;20044;-76
2022/04/08 01:08:12;;;;;;;14.70;4.22;;;;;;;;;;5088533;28;20055;-75
2022/04/08 01:10:42;;;;;;;;;;;;;;;;;;5089049;28;20423;-76
2022/04/08 01:13:13;;;;;;;15.73;4.90;;;;;;;;;;5086034;28;19935;-76
2022/04/08 01:15:43;;;;;;;16.80;5.15;;;;;;;;;;5088553;28;20062;-75
2022/04/08 01:18:13;;;;;;;12.93;4.90;;;;;;;;;;5069403;28;20075;-75
2022/04/08 01:20:43;;;;;;;17.02;5.10;;;;;;;;;;5087547;28;20526;-76
2022/04/08 01:23:19;;;;;;;10.40;3.97;;;;;;;;;;5088772;28;20517;-75
2022/04/08 01:25:49;;;;;;;17.27;4.95;;;;;;;;;;5089003;28;20048;-75
2022/04/08 01:28:19;;;;;;;11.05;4.65;;;;;;;;;;5087242;28;20051;-75
2022/04/08 01:30:49;;;;;;;17.35;5.88;;;;;;;;;;5088780;28;20047;-76
2022/04/08 01:33:18;;;;;;;15.18;4.47;;;;;;;;;;5088202;28;20052;-75
2022/04/08 01:35:48;;;;;;;12.38;4.75;;;;;;;;;;5088521;28;20052;-76
2022/04/08 01:38:18;;;;;;;13.50;4.68;;;;;;;;;;5088514;28;20525;-76
2022/04/08 01:40:48;;;;;;;15.07;4.82;;;;;;;;;;5088065;28;20051;-75
2022/04/08 01:43:18;;;;;;;16.45;4.15;;;;;;;;;;5088391;28;20620;-76
2022/04/08 01:45:48;;;;;;;14.23;3.95;;;;;;;;;;5087201;28;20048;-75
2022/04/08 01:48:18;;;;;;;9.88;3.95;;;;;;;;;;5087541;28;20151;-75
2022/04/08 01:50:48;;;;;;;17.42;3.92;;;;;;;;;;5089216;28;20055;-75
2022/04/08 01:53:18;;;;;;;9.57;4.00;;;;;;;;;;5088261;28;20522;-74
2022/04/08 01:55:48;;;;;;;19.52;4.82;;;;;;;;;;5088287;28;20055;-75
2022/04/08 01:58:18;;;;;;;16.05;4.15;;;;;;;;;;5069539;28;20411;-76
2022/04/08 02:00:47;;;;;;;13.65;4.97;;;;;;;;;;5087530;28;20055;-75
2022/04/08 02:03:20;;;;;;;17.15;4.60;;;;;;;;;;5088095;28;20052;-79
2022/04/08 02:05:50;;;;;;;15.93;4.43;;;;;;;;;;5087543;28;20051;-76
2022/04/08 02:08:20;;;;;;;13.65;4.32;;;;;;;;;;5087040;28;20503;-76
2022/04/08 02:10:53;;;;;;;15.55;4.63;;;;;;;;;;5088064;28;20048;-76
2022/04/08 02:13:23;;;;;;;17.65;4.57;;;;;;;;;;5087997;28;20391;-75
2022/04/08 02:15:53;;;;;;;16.83;5.00;;;;;;;;;;5088235;28;20050;-75
2022/04/08 02:18:23;;;;;;;13.63;4.57;;;;;;;;;;5087536;28;20671;-76
2022/04/08 02:20:53;;;;;;;9.05;3.75;;;;;;;;;;5069274;28;20056;-76
2022/04/08 02:23:23;;;;;;;10.20;3.90;;;;;;;;;;5069279;28;20411;-76
2022/04/08 02:25:52;;;;;;;8.55;4.45;;;;;;;;;;5087175;28;20110;-76
2022/04/08 02:28:22;;;;;;;10.13;4.78;;;;;;;;;;5087407;28;20052;-76
2022/04/08 02:30:54;;;;;;;16.80;5.20;;;;;;;;;;5087214;28;20055;-76
2022/04/08 02:33:24;;;;;;;15.25;4.68;;;;;;;;;;5087207;28;20052;-77
2022/04/08 02:35:54;;;;;;;15.38;4.38;;;;;;;;;;5087585;28;20048;-76
2022/04/08 02:38:24;;;;;;;12.32;4.55;;;;;;;;;;5086900;28;20044;-75
2022/04/08 02:40:54;;;;;;;17.38;4.13;;;;;;;;;;5087116;28;20047;-76
2022/04/08 02:43:24;;;;;;;20.10;4.25;;;;;;;;;;5069202;28;20052;-76
2022/04/08 02:45:54;;;;;;;12.45;4.13;;;;;;;;;;5069844;28;20052;-76
2022/04/08 02:48:23;;;;;;;15.70;4.00;;;;;;;;;;5087247;28;20055;-76
2022/04/08 02:50:54;;;;;;;13.18;4.10;;;;;;;;;;5087482;28;20052;-77
2022/04/08 02:53:24;;;;;;;16.25;4.63;;;;;;;;;;5088036;28;20059;-76
2022/04/08 02:55:54;;;;;;;13.80;4.95;;;;;;;;;;5087186;28;20507;-76
2022/04/08 02:58:23;;;;;;;16.92;5.18;;;;;;;;;;5088559;28;20048;-76
2022/04/08 03:00:53;;;;;;;24.73;6.00;;;;;;;;;;5109213;28;20052;-76
2022/04/08 03:03:26;;;;;;;20.77;5.03;;;;;;;;;;5111725;28;20020;-76
2022/04/08 03:05:57;;;;;;;11.18;5.40;;;;;;;;;;5107710;28;20052;-77
2022/04/08 03:08:29;;;;;;;;;;;;;;;;;;5105559;28;20050;-76
2022/04/08 03:10:59;;;;;;;7.78;4.25;;;;;;;;;;5105190;28;19931;-76
2022/04/08 03:13:29;;;;;;;18.83;4.88;;;;;;;;;;5072725;28;20051;-76
2022/04/08 03:16:00;;;;;;;10.45;5.57;;;;;;;;;;5086897;28;20040;-76
2022/04/08 03:18:30;;;;;;;13.00;5.10;;;;;;;;;;5086867;28;20051;-76
2022/04/08 03:20:59;;;;;;;13.35;5.10;;;;;;;;;;5086251;28;20676;-76
2022/04/08 03:23:29;;;;;;;19.15;5.88;;;;;;;;;;5088422;28;20036;-76
2022/04/08 03:25:59;;;;;;;16.80;5.07;;;;;;;;;;5068419;28;20503;-76
2022/04/08 03:28:31;;;;;;;17.77;5.37;;;;;;;;;;5085846;28;20078;-76
2022/04/08 03:31:02;;;;;;;20.63;5.57;;;;;;;;;;5085986;28;20040;-76
2022/04/08 03:33:32;;;;;;;13.57;5.38;;;;;;;;;;5085267;28;20067;-76
2022/04/08 03:36:01;;;;;;;14.02;5.80;;;;;;;;;;5087728;28;20052;-76
2022/04/08 03:38:31;;;;;;;11.95;5.47;;;;;;;;;;5086040;28;20052;-76
2022/04/08 03:41:02;;;;;;;11.85;5.38;;;;;;;;;;5085703;28;20499;-76
2022/04/08 03:43:34;;;;;;;19.50;5.80;;;;;;;;;;5084470;28;20059;-76
2022/04/08 03:46:04;;;;;;;13.63;5.35;;;;;;;;;;5085982;28;20047;-76
2022/04/08 03:48:34;;;;;;;15.23;5.25;;;;;;;;;;5067444;28;20044;-76
2022/04/08 03:51:04;;;;;;;12.25;5.00;;;;;;;;;;5085827;28;20048;-76
2022/04/08 03:53:34;;;;;;;10.45;5.28;;;;;;;;;;5086163;28;20044;-76
2022/04/08 03:56:05;;;;;;;11.13;4.15;;;;;;;;;;5086296;28;20044;-75
2022/04/08 03:58:35;;;;;;;;;;;;;;;;;;5086096;28;20051;-76
2022/04/08 04:01:04;;;;;;;10.27;4.60;;;;;;;;;;5086170;28;20025;-76
2022/04/08 04:03:34;;;;;;;11.80;4.32;;;;;;;;;;5086234;28;20040;-75
2022/04/08 04:06:04;;;;;;;16.15;4.15;;;;;;;;;;5085864;28;20051;-76
2022/04/08 04:08:34;;;;;;;9.43;4.70;;;;;;;;;;5085973;28;20040;-76
2022/04/08 04:11:03;;;;;;;13.10;5.10;;;;;;;;;;5087209;28;20419;-76
2022/04/08 04:13:33;;;;;;;10.18;4.53;;;;;;;;;;5089422;28;20052;-75
2022/04/08 04:16:03;;;;;;;8.63;4.78;;;;;;;;;;5090485;28;20056;-76
2022/04/08 04:18:33;;;;;;;14.05;4.50;;;;;;;;;;5089369;28;20051;-76
2022/04/08 04:21:04;;;;;;;8.38;4.53;;;;;;;;;;5089215;28;20059;-76
2022/04/08 04:23:34;;;;;;;13.63;4.30;;;;;;;;;;5089304;28;20055;-77
2022/04/08 04:26:06;;;;;;;8.52;5.03;;;;;;;;;;5088834;28;20527;-75
2022/04/08 04:28:36;;;;;;;18.05;5.32;;;;;;;;;;5087948;28;20052;-75
2022/04/08 04:31:06;;;;;;;18.42;4.20;;;;;;;;;;5089434;28;20546;-76
2022/04/08 04:33:36;;;;;;;12.20;4.43;;;;;;;;;;5088983;28;20503;-76
2022/04/08 04:36:06;;;;;;;11.88;4.80;;;;;;;;;;5088754;28;20051;-75
2022/04/08 04:38:36;;;;;;;11.75;4.70;;;;;;;;;;5089472;28;20044;-76
2022/04/08 04:41:05;;;;;;;11.05;4.40;;;;;;;;;;5088800;28;20048;-76
2022/04/08 04:43:36;;;;;;;10.95;4.15;;;;;;;;;;5070621;28;20052;-76
2022/04/08 04:46:05;;;;;;;11.02;4.07;;;;;;;;;;5088746;28;20604;-76
2022/04/08 04:48:35;;;;;;;9.50;4.30;;;;;;;;;;5088783;28;20036;-76
2022/04/08 04:51:05;;;;;;;12.60;4.25;;;;;;;;;;5069946;28;20055;-76
2022/04/08 04:53:35;;;;;;;7.05;4.68;;;;;;;;;;5089603;28;20052;-77
2022/04/08 04:56:05;;;;;;;16.90;4.90;;;;;;;;;;5071560;28;20040;-76
2022/04/08 04:58:35;;;;;;;20.33;4.95;;;;;;;;;;5070594;28;20403;-76
2022/04/08 05:01:05;;;;;;;10.23;4.68;;;;;;;;;;5069717;28;20048;-76
2022/04/08 05:03:41;;;;;;;12.15;4.28;;;;;;;;;;5089054;28;20043;-76
2022/04/08 05:06:11;;;;;;;10.68;4.82;;;;;;;;;;5088824;28;20541;-76
2022/04/08 05:08:41;;;;;;;13.20;5.63;;;;;;;;;;5088645;28;20048;-76
2022/04/08 05:11:11;;;;;;;16.52;5.20;;;;;;;;;;5088530;28;20052;-76
2022/04/08 05:13:40;;;;;;;9.63;4.88;;;;;;;;;;5089003;28;20047;-76
2022/04/08 05:16:10;;;;;;;15.02;5.07;;;;;;;;;;5087625;28;20059;-76
2022/04/08 05:18:40;;;;;;;12.90;4.65;;;;;;;;;;5088324;28;20051;-76
2022/04/08 05:21:10;;;;;;;14.45;5.10;;;;;;;;;;5088292;28;20048;-76
2022/04/08 05:23:40;;;;;;;16.63;5.13;;;;;;;;;;5088461;28;20056;-76
2022/04/08 05:26:09;;;;;;;8.60;5.25;;;;;;;;;;5088329;28;20154;-76
2022/04/08 05:28:39;;;;;;;6.43;4.55;;;;;;;;;;5088111;28;20052;-76
2022/04/08 05:31:09;;;;;;;8.77;4.30;;;;;;;;;;5069848;28;20060;-76
2022/04/08 05:33:39;;;;;;;11.48;4.30;;;;;;;;;;5087724;28;20048;-76
2022/04/08 05:36:09;;;;;;;16.13;5.20;;;;;;;;;;5087769;28;20048;-76
2022/04/08 05:38:45;;;;;;;13.20;5.32;;;;;;;;;;5087583;28;20051;-76
2022/04/08 05:41:15;;;;;;;14.40;5.60;;;;;;;;;;5088146;28;20124;-76
2022/04/08 05:43:45;;;;;;;20.85;5.60;;;;;;;;;;5088418;28;20048;-76
2022/04/08 05:46:15;;;;;;;21.20;5.72;;;;;;;;;;5070153;28;20075;-77
2022/04/08 05:48:45;;;;;;;12.00;5.70;;;;;;;;;;5086953;28;20052;-76
2022/04/08 05:51:15;;;;;;;17.13;6.13;;;;;;;;;;5087941;28;20765;-76
2022/04/08 05:54:03;;;;;;;11.38;6.00;;;;;;;;;;5088357;28;20048;-76
2022/04/08 05:56:33;;;;;;;11.90;6.47;;;;;;;;;;5087784;28;20052;-76
2022/04/08 05:59:03;;;;;;;17.08;6.30;;;;;;;;;;5086679;28;20589;-76
2022/04/08 06:01:32;;;;;;;18.80;7.05;;;;;;;;;;5069481;28;20051;-77
2022/04/08 06:04:02;;;;;;;18.65;7.03;;;;;;;;;;5087633;28;20040;-76
2022/04/08 06:06:33;;;;;;;16.27;6.82;;;;;;;;;;5087214;28;20067;-77
2022/04/08 06:09:02;;;;;;;17.70;6.18;;;;;;;;;;5087864;28;20048;-76
2022/04/08 06:11:32;;;;;;;21.48;8.38;;;;;;;;;;5087313;28;20044;-76
2022/04/08 06:14:02;;;;;;;15.95;9.57;;;;;;;;;;5086751;28;20059;-76
2022/04/08 06:16:38;;;;;;;37.33;25.58;;;;;;;;;;5068409;28;20144;-76
2022/04/08 06:19:08;;;;;;;26.03;20.47;;;;;;;;;;5087003;28;20051;-76
2022/04/08 06:21:38;;;;;;;25.15;14.90;;;;;;;;;;5087967;28;20305;-76
2022/04/08 06:24:08;;;;;;;40.40;25.90;;;;;;;;;;5086552;28;20510;-76
2022/04/08 06:26:38;;;;;;;36.40;27.45;;;;;;;;;;5086883;28;20056;-76
2022/04/08 06:29:09;;;;;;;42.75;27.15;;;;;;;;;;5067890;28;20052;-75
2022/04/08 06:31:43;;;;;;;55.83;26.15;;;;;;;;;;5086440;28;20043;-76
2022/04/08 06:34:13;;;;;;;39.45;23.75;;;;;;;;;;5086667;28;20067;-76
2022/04/08 06:36:44;;;;;;;37.17;25.40;;;;;;;;;;5086411;28;20048;-76
2022/04/08 06:39:14;;;;;;;45.05;27.13;;;;;;;;;;5086814;28;20760;-76
2022/04/08 06:41:44;;;;;;;44.80;28.92;;;;;;;;;;5086494;28;20044;-76
2022/04/08 06:44:14;;;;;;;41.15;28.33;;;;;;;;;;5086588;28;20048;-76
2022/04/08 06:46:44;;;;;;;44.42;25.08;;;;;;;;;;5086290;28;20426;-76
2022/04/08 06:49:14;;;;;;;48.75;28.95;;;;;;;;;;5086843;28;20071;-76
2022/04/08 06:51:44;;;;;;;47.28;30.00;;;;;;;;;;5086471;28;20044;-76
2022/04/08 06:54:14;;;;;;;39.45;29.25;;;;;;;;;;5086216;28;20048;-76
2022/04/08 06:56:44;;;;;;;44.35;25.90;;;;;;;;;;5086393;28;20050;-76
2022/04/08 06:59:14;;;;;;;35.97;20.60;;;;;;;;;;5051610;28;20071;-76
2022/04/08 07:01:44;;;;;;;37.65;20.08;;;;;;;;;;5086571;28;20093;-76
2022/04/08 07:04:14;;;;;;;34.80;19.00;;;;;;;;;;5087066;28;20772;-76
2022/04/08 07:06:44;;;;;;;25.45;18.25;;;;;;;;;;5086722;28;20597;-76
2022/04/08 07:09:13;;;;;;;28.42;17.05;;;;;;;;;;5086348;28;20499;-76
2022/04/08 07:11:43;;;;;;;33.50;15.75;;;;;;;;;;5086429;28;20048;-76
2022/04/08 07:14:14;;;;;;;25.23;14.13;;;;;;;;;;5086401;28;20066;-77
2022/04/08 07:16:46;;;;;;;24.30;13.82;;;;;;;;;;5069113;28;20048;-83
2022/04/08 07:19:16;;;;;;;27.08;13.60;;;;;;;;;;5086901;28;20040;-76
2022/04/08 07:21:46;;;;;;;26.08;14.68;;;;;;;;;;5086416;28;20044;-77
2022/04/08 07:24:17;;;;;;;30.37;15.87;;;;;;;;;;5086544;28;20067;-77
2022/04/08 07:26:46;;;;;;;24.13;12.73;;;;;;;;;;5085823;28;20048;-76
2022/04/08 07:29:16;;;;;;;27.92;13.85;;;;;;;;;;5086907;28;20071;-76
2022/04/08 07:31:46;;;;;;;25.42;13.15;;;;;;;;;;5086943;28;20044;-77
2022/04/08 07:34:16;;;;;;;24.20;13.00;;;;;;;;;;5085855;28;20638;-76
2022/04/08 07:36:46;;;;;;;31.02;13.85;;;;;;;;;;5086636;28;20384;-76
2022/04/08 07:39:17;;;;;;;20.50;15.33;;;;;;;;;;5086406;28;20044;-77
2022/04/08 07:41:47;;;;;;;28.48;15.95;;;;;;;;;;5084758;28;20059;-77
2022/04/08 07:44:17;;;;;;;27.88;15.85;;;;;;;;;;5086074;28;20109;-77
2022/04/08 07:46:47;;;;;;;26.52;15.93;;;;;;;;;;5089296;28;20055;-76
2022/04/08 07:49:17;;;;;;;21.33;14.90;;;;;;;;;;5089218;28;20063;-77
2022/04/08 07:51:48;;;;;;;28.73;14.80;;;;;;;;;;5070932;28;20052;-77
2022/04/08 07:54:19;;;;;;;25.50;13.85;;;;;;;;;;5090304;28;20641;-74
2022/04/08 07:56:49;;;;;;;;;;;;;;;;;;5092194;28;20392;-75
2022/04/08 07:59:20;;;;;;;18.08;11.00;;;;;;;;;;5089342;28;19930;-75
2022/04/08 08:01:50;;;;;;;21.87;11.57;;;;;;;;;;5090501;28;20418;-76
2022/04/08 08:04:22;;;;;;;17.88;11.30;;;;;;;;;;5090414;28;20051;-76
2022/04/08 08:06:53;;;;;;;17.48;11.23;;;;;;;;;;5090106;28;20075;-75
2022/04/08 08:09:23;;;;;;;18.50;10.68;;;;;;;;;;5090372;28;20063;-76
2022/04/08 08:12:13;;;;;;;23.33;12.77;;;;;;;;;;5090651;28;20059;-76
2022/04/08 08:14:43;;;;;;;24.45;12.52;;;;;;;;;;5089688;28;20051;-76
2022/04/08 08:17:12;;;;;;;27.10;12.00;;;;;;;;;;5089847;28;20048;-75
2022/04/08 08:19:42;;;;;;;18.63;11.13;;;;;;;;;;5089484;28;20048;-75
2022/04/08 08:22:12;;;;;;;21.38;11.35;;;;;;;;;;5089252;28;20052;-75
2022/04/08 08:24:42;;;;;;;19.98;10.80;;;;;;;;;;5089136;28;20059;-75
2022/04/08 08:27:12;;;;;;;17.13;10.13;;;;;;;;;;5089700;28;20048;-76
2022/04/08 08:29:41;;;;;;;15.07;10.10;;;;;;;;;;5089104;28;20044;-76
2022/04/08 08:32:11;;;;;;;16.77;11.18;;;;;;;;;;5072449;28;20047;-76
2022/04/08 08:34:41;;;;;;;19.23;11.90;;;;;;;;;;5089065;28;20056;-75
2022/04/08 08:37:11;;;;;;;21.15;11.73;;;;;;;;;;5089266;28;20055;-75
2022/04/08 08:39:41;;;;;;;21.15;12.32;;;;;;;;;;5088938;28;20048;-75
2022/04/08 08:42:11;;;;;;;15.93;12.18;;;;;;;;;;5088872;28;20490;-76
2022/04/08 08:44:41;;;;;;;18.40;11.83;;;;;;;;;;5089492;28;20052;-76
2022/04/08 08:47:12;;;;;;;25.25;12.30;;;;;;;;;;5089655;28;20055;-75
2022/04/08 08:49:49;;;;;;;19.75;11.73;;;;;;;;;;5089144;28;20418;-76
2022/04/08 08:52:19;;;;;;;19.40;11.27;;;;;;;;;;5089639;28;20051;-75
2022/04/08 08:54:50;;;;;;;17.52;9.65;;;;;;;;;;5089709;28;20193;-76
2022/04/08 08:57:21;;;;;;;19.80;9.70;;;;;;;;;;5088705;28;20044;-74
2022/04/08 08:59:53;;;;;;;22.42;9.55;;;;;;;;;;5070813;28;20395;-76
2022/04/08 09:02:23;;;;;;;13.52;8.25;;;;;;;;;;5089378;28;20063;-76
2022/04/08 09:04:54;;;;;;;15.63;9.35;;;;;;;;;;5070750;28;20063;-75
2022/04/08 09:07:30;;;;;;;21.17;9.00;;;;;;;;;;5089049;28;20063;-76
2022/04/08 09:10:01;;;;;;;10.50;8.15;;;;;;;;;;5089422;28;20040;-76
2022/04/08 09:12:31;;;;;;;9.48;7.50;;;;;;;;;;5089539;28;20048;-75
2022/04/08 09:15:02;;;;;;;12.00;7.75;;;;;;;;;;5089142;28;20048;-75
2022/04/08 09:17:32;;;;;;;16.95;8.63;;;;;;;;;;5089418;28;20036;-76
2022/04/08 09:20:02;;;;;;;12.27;7.05;;;;;;;;;;5089252;28;20574;-76
2022/04/08 09:22:33;;;;;;;8.75;5.32;;;;;;;;;;5088833;28;20506;-75
2022/04/08 09:25:10;;;;;;;11.40;4.93;;;;;;;;;;5089021;28;20044;-75
2022/04/08 09:27:42;;;;;;;10.25;5.15;;;;;;;;;;5088137;28;20278;-76
2022/04/08 09:30:21;;;;;;;8.90;4.93;;;;;;;;;;5089009;28;20067;-75
2022/04/08 09:32:51;;;;;;;13.60;5.07;;;;;;;;;;5088363;28;20445;-76
2022/04/08 09:35:24;;;;;;;8.68;4.57;;;;;;;;;;5088490;28;20632;-75
2022/04/08 09:38:01;;;;;;;10.32;4.82;;;;;;;;;;5088244;28;20537;-75
2022/04/08 09:40:45;;;;;;;7.80;4.60;;;;;;;;;;5088969;28;20048;-75
2022/04/08 09:43:16;;;;;;;12.05;5.30;;;;;;;;;;5088101;28;20044;-78
2022/04/08 09:45:46;;;;;;;13.05;5.57;;;;;;;;;;5088795;28;20051;-75
2022/04/08 09:48:16;;;;;;;10.68;5.45;;;;;;;;;;5088282;28;20048;-79
2022/04/08 09:50:51;;;;;;;6.68;4.90;;;;;;;;;;5088164;28;20048;-75
2022/04/08 09:53:25;;;;;;;8.70;6.40;;;;;;;;;;5088152;28;20051;-78
2022/04/08 09:55:56;;;;;;;7.20;5.32;;;;;;;;;;5087900;28;20059;-75
2022/04/08 09:58:29;;;;;;;15.98;6.25;;;;;;;;;;5088187;28;20044;-77
2022/04/08 10:00:59;;;;;;;8.10;4.45;;;;;;;;;;5087476;28;20040;-77
2022/04/08 10:03:30;;;;;;;5.90;4.20;;;;;;;;;;5086992;28;20063;-77
2022/04/08 10:06:00;;;;;;;9.75;4.30;;;;;;;;;;5088299;28;20055;-79
2022/04/08 10:08:33;;;;;;;11.63;5.53;;;;;;;;;;5068604;28;20052;-75
2022/04/08 10:11:18;;;;;;;9.95;5.13;;;;;;;;;;5070206;28;20059;-75
2022/04/08 10:14:22;;;;;;;5.10;3.85;;;;;;;;;;5088096;28;20052;-75
2022/04/08 10:16:53;;;;;;;8.02;4.30;;;;;;;;;;5087950;28;20055;-75
2022/04/08 10:19:23;;;;;;;4.47;3.83;;;;;;;;;;5087655;28;20040;-76
2022/04/08 10:21:55;;;;;;;8.88;4.10;;;;;;;;;;5087615;28;20052;-76
2022/04/08 10:24:30;;;;;;;12.25;7.30;;;;;;;;;;5087438;28;20051;-76
2022/04/08 10:27:10;;;;;;;14.27;4.90;;;;;;;;;;5086876;28;20048;-77
2022/04/08 10:29:40;;;;;;;6.70;4.55;;;;;;;;;;5087409;28;20055;-75
2022/04/08 10:32:14;;;;;;;8.73;3.88;;;;;;;;;;5087303;28;20055;-76
2022/04/08 10:34:51;;;;;;;9.07;4.18;;;;;;;;;;5086946;28;20055;-76
2022/04/08 10:37:24;;;;;;;9.07;4.43;;;;;;;;;;5087888;28;20084;-76
2022/04/08 10:39:58;;;;;;;14.93;3.85;;;;;;;;;;5087282;28;20406;-76
2022/04/08 10:42:29;;;;;;;6.57;3.22;;;;;;;;;;5087138;28;20413;-76
2022/04/08 10:44:59;;;;;;;12.10;6.68;;;;;;;;;;5087575;28;20044;-76
2022/04/08 10:47:29;;;;;;;7.93;4.15;;;;;;;;;;5087103;28;20048;-76
2022/04/08 10:50:04;;;;;;;18.00;5.30;;;;;;;;;;5086836;28;20387;-77
2022/04/08 10:52:41;;;;;;;10.13;5.00;;;;;;;;;;5087171;28;20054;-81
2022/04/08 10:55:12;;;;;;;9.40;4.55;;;;;;;;;;5086362;28;20403;-77
2022/04/08 10:57:45;;;;;;;7.82;4.40;;;;;;;;;;5068289;28;20059;-76
2022/04/08 11:00:18;;;;;;;8.68;3.92;;;;;;;;;;5069266;28;20056;-75
2022/04/08 11:02:52;;;;;;;13.70;3.83;;;;;;;;;;5087452;28;20047;-76
2022/04/08 11:05:23;;;;;;;5.85;3.20;;;;;;;;;;5085702;28;21176;-77
2022/04/08 11:07:54;;;;;;;8.25;3.97;;;;;;;;;;5087064;28;20040;-77
2022/04/08 11:10:24;;;;;;;14.48;4.28;;;;;;;;;;5068947;28;20056;-76
2022/04/08 11:12:54;;;;;;;7.60;4.10;;;;;;;;;;5086375;28;20044;-76
2022/04/08 11:15:27;;;;;;;9.40;3.78;;;;;;;;;;5085537;28;20044;-76
2022/04/08 11:18:01;;;;;;;6.82;3.85;;;;;;;;;;5086160;28;20040;-77
2022/04/08 11:20:32;;;;;;;3.42;3.08;;;;;;;;;;5086163;28;20055;-76
2022/04/08 11:23:02;;;;;;;4.47;2.85;;;;;;;;;;5086301;28;20050;-76
2022/04/08 11:25:33;;;;;;;11.23;3.10;;;;;;;;;;5085985;28;20793;-81
2022/04/08 11:28:07;;;;;;;6.00;3.85;;;;;;;;;;5087608;28;20040;-78
2022/04/08 11:30:39;;;;;;;4.90;2.22;;;;;;;;;;5083825;28;20044;-77
2022/04/08 11:33:14;;;;;;;9.73;2.42;;;;;;;;;;5085601;28;20056;-77
2022/04/08 11:35:47;;;;;;;4.20;2.33;;;;;;;;;;5068370;28;20052;-77
2022/04/08 11:38:18;;;;;;;3.30;1.95;;;;;;;;;;5085845;28;20044;-77
2022/04/08 11:40:49;;;;;;;4.25;2.28;;;;;;;;;;5068033;28;20110;-77
2022/04/08 11:43:20;;;;;;;4.05;2.42;;;;;;;;;;5086521;28;20059;-76
2022/04/08 11:45:52;;;;;;;5.10;2.40;;;;;;;;;;5085806;28;20052;-76
2022/04/08 11:48:23;;;;;;;6.85;2.42;;;;;;;;;;5068111;28;20410;-76
2022/04/08 11:51:05;;;;;;;3.47;2.40;;;;;;;;;;5085801;28;20604;-78
2022/04/08 11:53:46;;;;;;;2.22;1.90;;;;;;;;;;5086551;28;20044;-83
2022/04/08 11:56:20;;;;;;;3.75;2.47;;;;;;;;;;5086650;28;20055;-77
2022/04/08 11:59:04;;;;;;;3.13;1.83;;;;;;;;;;5086148;28;20051;-77
2022/04/08 12:01:40;;;;;;;24.40;4.38;;;;;;;;;;5068028;28;20048;-77
2022/04/08 12:04:13;;;;;;;4.93;2.53;;;;;;;;;;5085938;28;20048;-76
2022/04/08 12:06:45;;;;;;;9.40;2.65;;;;;;;;;;5086385;28;20048;-76
2022/04/08 12:09:18;;;;;;;4.22;2.10;;;;;;;;;;5086439;28;20068;-77
2022/04/08 12:11:48;;;;;;;16.45;3.15;;;;;;;;;;5086588;28;20387;-75
2022/04/08 12:14:20;;;;;;;7.45;2.25;;;;;;;;;;5086172;28;20063;-76
2022/04/08 12:17:01;;;;;;;6.25;2.85;;;;;;;;;;5068785;28;20067;-75
2022/04/08 12:19:39;;;;;;;12.02;2.80;;;;;;;;;;5087048;28;20503;-74
2022/04/08 12:22:15;;;;;;;11.63;2.63;;;;;;;;;;5108476;28;20028;-77
2022/04/08 12:24:49;;;;;;;6.80;4.07;;;;;;;;;;5111423;28;20062;-77
2022/04/08 12:27:25;;;;;;;15.10;4.30;;;;;;;;;;5111382;28;20036;-77
2022/04/08 12:30:02;;;;;;;13.38;3.30;;;;;;;;;;5112053;28;20044;-77
2022/04/08 12:32:42;;;;;;;16.88;3.92;;;;;;;;;;5111281;28;20054;-78
2022/04/08 12:35:12;;;;;;;8.80;3.30;;;;;;;;;;5090048;28;20044;-77
2022/04/08 12:37:42;;;;;;;25.40;3.92;;;;;;;;;;5089533;28;20075;-80
2022/04/08 12:40:12;;;;;;;10.00;3.58;;;;;;;;;;5089524;28;20047;-78
2022/04/08 12:42:41;;;;;;;8.32;3.45;;;;;;;;;;5089209;28;20052;-76
2022/04/08 12:45:11;;;;;;;28.33;5.40;;;;;;;;;;5089388;28;20513;-77
2022/04/08 12:47:41;;;;;;;24.45;4.18;;;;;;;;;;5088309;28;20055;-76
2022/04/08 12:50:11;;;;;;;6.75;3.13;;;;;;;;;;5085459;28;20044;-77
2022/04/08 12:52:41;;;;;;;10.57;3.53;;;;;;;;;;5085625;28;20044;-76
2022/04/08 12:55:16;;;;;;;5.35;2.75;;;;;;;;;;5086384;28;20055;-76
2022/04/08 12:57:48;;;;;;;3.97;2.78;;;;;;;;;;5088713;28;20391;-77
2022/04/08 13:00:24;;;;;;;10.13;2.95;;;;;;;;;;5089081;28;20047;-77
2022/04/08 13:02:54;;;;;;;;;;;;;;;;;;5089613;28;20043;-79
2022/04/08 13:05:24;;;;;;;3.95;2.72;;;;;;;;;;5088749;28;19927;-77
2022/04/08 13:07:54;;;;;;;5.43;2.50;;;;;;;;;;5088221;28;20059;-76
2022/04/08 13:10:24;;;;;;;32.53;6.22;;;;;;;;;;5087801;28;20052;-77
2022/04/08 13:12:53;;;;;;;16.95;3.83;;;;;;;;;;5089347;28;20479;-77
2022/04/08 13:15:23;;;;;;;10.32;3.00;;;;;;;;;;5088953;28;20051;-79
2022/04/08 13:17:53;;;;;;;3.85;2.45;;;;;;;;;;5088141;28;20059;-77
2022/04/08 13:20:23;;;;;;;9.30;2.88;;;;;;;;;;5088731;28;20048;-77
2022/04/08 13:22:53;;;;;;;5.68;2.70;;;;;;;;;;5088230;28;20048;-77
2022/04/08 13:25:24;;;;;;;2.72;2.10;;;;;;;;;;5088754;28;20055;-76
2022/04/08 13:27:54;;;;;;;5.15;2.38;;;;;;;;;;5088022;28;20052;-76
2022/04/08 13:30:24;;;;;;;15.05;7.00;;;;;;;;;;5088088;28;20415;-76
2022/04/08 13:32:54;;;;;;;8.88;3.40;;;;;;;;;;5087718;28;20495;-77
2022/04/08 13:35:24;;;;;;;5.95;2.33;;;;;;;;;;5069869;28;20048;-76
2022/04/08 13:37:54;;;;;;;6.97;2.28;;;;;;;;;;5070010;28;20051;-76
2022/04/08 13:40:24;;;;;;;7.85;2.38;;;;;;;;;;5088381;28;20051;-79
2022/04/08 13:42:55;;;;;;;6.18;2.10;;;;;;;;;;5087791;28;20495;-76
2022/04/08 13:45:25;;;;;;;5.88;2.13;;;;;;;;;;5087776;28;20411;-76
2022/04/08 13:47:57;;;;;;;3.17;1.70;;;;;;;;;;5087717;28;20568;-76
2022/04/08 13:50:28;;;;;;;3.60;1.98;;;;;;;;;;5088065;28;20055;-76
2022/04/08 13:52:57;;;;;;;3.85;2.00;;;;;;;;;;5087923;28;20044;-81
2022/04/08 13:55:27;;;;;;;9.02;2.38;;;;;;;;;;5087620;28;20506;-76
2022/04/08 13:57:59;;;;;;;3.90;2.00;;;;;;;;;;5069810;28;20400;-76
2022/04/08 14:00:29;;;;;;;3.40;1.90;;;;;;;;;;5068632;28;20051;-76
2022/04/08 14:02:59;;;;;;;3.53;1.73;;;;;;;;;;5087637;28;20055;-76
2022/04/08 14:05:29;;;;;;;4.60;2.25;;;;;;;;;;5088328;28;20577;-77
2022/04/08 14:07:59;;;;;;;11.60;2.50;;;;;;;;;;5086438;28;20527;-76
2022/04/08 14:10:29;;;;;;;15.93;3.45;;;;;;;;;;5087142;28;20534;-76
2022/04/08 14:13:01;;;;;;;4.55;1.88;;;;;;;;;;5087815;28;20059;-76
2022/04/08 14:15:32;;;;;;;9.43;2.13;;;;;;;;;;5087140;28;20063;-75
2022/04/08 14:18:02;;;;;;;10.10;2.65;;;;;;;;;;5087510;28;20055;-76
2022/04/08 14:20:32;;;;;;;10.10;2.40;;;;;;;;;;5087656;28;20443;-75
2022/04/08 14:23:03;;;;;;;11.88;2.60;;;;;;;;;;5068032;28;20052;-76
2022/04/08 14:25:33;;;;;;;3.97;1.83;;;;;;;;;;5087211;28;20059;-76
2022/04/08 14:28:03;;;;;;;3.83;2.13;;;;;;;;;;5087281;28;20067;-77
2022/04/08 14:30:33;;;;;;;5.95;1.90;;;;;;;;;;5087630;28;20055;-77
2022/04/08 14:33:03;;;;;;;9.00;2.40;;;;;;;;;;5087558;28;20643;-79
2022/04/08 14:35:32;;;;;;;6.78;2.40;;;;;;;;;;5086510;28;20070;-76
2022/04/08 14:38:03;;;;;;;5.55;2.00;;;;;;;;;;5086464;28;20051;-76
2022/04/08 14:40:33;;;;;;;5.95;2.35;;;;;;;;;;5087309;28;20048;-78
2022/04/08 14:43:06;;;;;;;8.02;2.83;;;;;;;;;;5086788;28;20519;-77
2022/04/08 14:45:36;;;;;;;6.38;2.17;;;;;;;;;;5069338;28;20056;-78
2022/04/08 14:48:06;;;;;;;4.30;2.17;;;;;;;;;;5087302;28;20058;-75
2022/04/08 14:50:37;;;;;;;3.33;2.00;;;;;;;;;;5085311;28;20514;-75
2022/04/08 14:53:06;;;;;;;4.05;2.20;;;;;;;;;;5068227;28;20055;-77
2022/04/08 14:55:36;;;;;;;7.55;2.17;;;;;;;;;;5086218;28;20040;-77